createdAt,value
2023-04-20T00:01:29.664Z,8.68
2023-04-20T00:05:42.142Z,6.97
2023-04-20T00:09:54.557Z,8.00
2023-04-20T00:14:07.490Z,9.80
2023-04-20T00:18:19.757Z,5.95
2023-04-20T00:22:32.227Z,8.43
2023-04-20T00:26:44.652Z,8.65
2023-04-20T00:30:57.110Z,7.88
2023-04-20T00:35:09.978Z,6.15
2023-04-20T00:39:22.559Z,8.43
2023-04-20T00:43:35.097Z,7.38
2023-04-20T00:47:47.679Z,5.85
2023-04-20T00:52:01.285Z,6.18
2023-04-20T00:56:14.662Z,8.85
2023-04-20T01:00:27.753Z,5.65
2023-04-20T01:04:40.254Z,6.57
2023-04-20T01:08:52.724Z,5.70
2023-04-20T01:13:05.094Z,6.25
2023-04-20T01:17:20.643Z,6.75
2023-04-20T01:21:33.249Z,6.65
2023-04-20T01:25:45.845Z,6.03
2023-04-20T01:30:00.044Z,6.85
2023-04-20T01:34:12.433Z,7.95
2023-04-20T01:38:26.124Z,8.02
2023-04-20T01:42:39.387Z,6.15
2023-04-20T01:46:51.745Z,5.80
2023-04-20T01:51:04.452Z,4.93
2023-04-20T01:55:20.023Z,6.70
2023-04-20T01:59:32.596Z,5.90
2023-04-20T02:03:49.896Z,5.97
2023-04-20T02:08:02.676Z,5.70
2023-04-20T02:12:15.154Z,5.85
2023-04-20T02:16:29.578Z,5.72
2023-04-20T02:20:42.543Z,6.13
2023-04-20T02:24:55.050Z,5.68
2023-04-20T02:29:07.434Z,6.47
2023-04-20T02:33:21.999Z,7.78
2023-04-20T02:37:38.761Z,6.05
2023-04-20T02:41:51.250Z,6.10
2023-04-20T02:46:03.917Z,6.22
2023-04-20T02:50:16.853Z,5.97
2023-04-20T02:54:46.791Z,7.15
2023-04-20T02:58:59.367Z,5.13
2023-04-20T03:03:28.922Z,4.93
2023-04-20T03:07:42.066Z,6.35
2023-04-20T03:11:56.712Z,7.03
2023-04-20T03:16:34.346Z,5.80
2023-04-20T03:20:47.627Z,8.13
2023-04-20T03:25:00.249Z,7.22
2023-04-20T03:29:36.320Z,5.20
2023-04-20T03:33:49.106Z,5.93
2023-04-20T03:38:01.807Z,5.88
2023-04-20T03:42:14.153Z,6.45
2023-04-20T03:46:27.417Z,5.93
2023-04-20T03:50:39.816Z,5.72
2023-04-20T03:54:52.252Z,7.15
2023-04-20T03:59:05.472Z,8.68
2023-04-20T04:03:18.285Z,6.45
2023-04-20T04:07:30.834Z,6.65
2023-04-20T04:11:43.306Z,8.80
2023-04-20T04:15:55.850Z,5.13
2023-04-20T04:20:09.357Z,4.30
2023-04-20T04:24:22.895Z,6.65
2023-04-20T04:29:04.858Z,6.03
2023-04-20T04:33:19.430Z,5.88
2023-04-20T04:37:37.142Z,6.85
2023-04-20T04:41:50.299Z,10.07
2023-04-20T04:46:14.894Z,5.70
2023-04-20T04:50:27.920Z,6.38
2023-04-20T04:54:40.644Z,5.30
2023-04-20T04:58:53.032Z,5.88
2023-04-20T05:03:05.586Z,5.20
2023-04-20T05:07:18.066Z,5.55
2023-04-20T05:11:32.046Z,9.93
2023-04-20T05:15:44.398Z,10.32
2023-04-20T05:19:56.723Z,8.13
2023-04-20T05:24:09.159Z,7.05
2023-04-20T05:28:21.598Z,6.28
2023-04-20T05:32:34.061Z,5.68
2023-04-20T05:36:48.491Z,6.57
2023-04-20T05:41:00.928Z,5.85
2023-04-20T05:45:13.514Z,5.53
2023-04-20T05:49:26.501Z,6.43
2023-04-20T05:53:38.919Z,8.25
2023-04-20T05:57:52.575Z,10.82
2023-04-20T06:02:05.217Z,5.00
2023-04-20T06:06:17.738Z,11.38
2023-04-20T06:10:32.739Z,7.45
2023-04-20T06:14:44.987Z,9.73
2023-04-20T06:18:58.945Z,10.38
2023-04-20T06:23:12.096Z,5.28
2023-04-20T06:27:24.480Z,10.38
2023-04-20T06:31:37.181Z,7.60
2023-04-20T06:35:51.814Z,5.13
2023-04-20T06:40:11.121Z,8.88
2023-04-20T06:44:23.537Z,7.20
2023-04-20T06:48:36.286Z,7.82
2023-04-20T06:52:48.764Z,8.32
2023-04-20T06:57:01.694Z,9.57
2023-04-20T07:01:14.410Z,7.15
2023-04-20T07:05:29.267Z,6.13
2023-04-20T07:09:41.566Z,6.45
2023-04-20T07:13:54.041Z,7.60
2023-04-20T07:18:06.731Z,7.47
2023-04-20T07:22:19.069Z,5.30
2023-04-20T07:26:31.566Z,4.38
2023-04-20T07:30:44.091Z,5.32
2023-04-20T07:34:56.575Z,4.93
2023-04-20T07:39:09.079Z,5.15
2023-04-20T07:43:22.795Z,11.43
2023-04-20T07:47:35.848Z,7.60
2023-04-20T07:51:48.247Z,4.30
2023-04-20T07:56:00.697Z,6.35
2023-04-20T08:00:14.390Z,9.02
2023-04-20T08:04:26.989Z,5.60
2023-04-20T08:08:39.675Z,7.85
2023-04-20T08:12:53.740Z,9.70
2023-04-20T08:17:06.205Z,10.45
2023-04-20T08:21:18.703Z,6.13
2023-04-20T08:25:32.676Z,8.18
2023-04-20T08:29:45.150Z,9.45
2023-04-20T08:33:57.650Z,10.07
2023-04-20T08:38:11.317Z,9.20
2023-04-20T08:42:25.030Z,9.25
2023-04-20T08:46:40.347Z,10.88
2023-04-20T08:50:53.513Z,13.80
2023-04-20T08:55:07.635Z,7.43
2023-04-20T08:59:19.969Z,11.13
2023-04-20T09:03:39.534Z,8.15
2023-04-20T09:07:54.466Z,9.65
2023-04-20T09:12:10.556Z,8.82
2023-04-20T09:16:23.008Z,7.82
2023-04-20T09:20:35.762Z,8.48
2023-04-20T09:24:48.111Z,12.05
2023-04-20T09:29:04.081Z,8.73
2023-04-20T09:33:16.510Z,9.57
2023-04-20T09:37:28.954Z,13.05
2023-04-20T09:41:42.450Z,7.95
2023-04-20T09:45:56.695Z,5.97
2023-04-20T09:50:24.768Z,4.60
2023-04-20T09:54:43.022Z,6.10
2023-04-20T09:58:57.237Z,6.43
2023-04-20T10:03:11.462Z,6.78
2023-04-20T10:07:26.403Z,4.82
2023-04-20T10:11:53.248Z,10.27
2023-04-20T10:16:17.796Z,6.60
2023-04-20T10:20:30.174Z,7.72
2023-04-20T10:24:42.668Z,5.38
2023-04-20T10:28:55.021Z,4.45
2023-04-20T10:33:10.185Z,3.78
2023-04-20T10:37:22.763Z,4.70
2023-04-20T10:41:37.662Z,9.00
2023-04-20T10:45:50.999Z,5.90
2023-04-20T10:50:11.691Z,15.95
2023-04-20T10:54:24.058Z,8.48
2023-04-20T10:58:36.529Z,4.28
2023-04-20T11:02:52.526Z,7.60
2023-04-20T11:07:07.549Z,6.25
2023-04-20T11:11:21.486Z,7.75
2023-04-20T11:15:35.289Z,7.55
2023-04-20T11:19:50.599Z,10.27
2023-04-20T11:24:03.897Z,6.30
2023-04-20T11:28:16.259Z,7.55
2023-04-20T11:32:28.910Z,7.22
2023-04-20T11:36:42.115Z,7.53
2023-04-20T11:40:54.658Z,6.95
2023-04-20T11:45:07.678Z,7.80
2023-04-20T11:49:21.304Z,7.85
2023-04-20T11:53:34.282Z,7.85
2023-04-20T11:57:46.772Z,6.28
2023-04-20T12:02:01.610Z,5.70
2023-04-20T12:06:14.066Z,9.63
2023-04-20T12:10:26.546Z,6.57
2023-04-20T12:14:39.075Z,5.18
2023-04-20T12:18:51.422Z,6.70
2023-04-20T12:23:03.727Z,8.38
2023-04-20T12:27:16.602Z,4.85
2023-04-20T12:31:29.099Z,7.47
2023-04-20T12:35:41.544Z,6.55
2023-04-20T12:39:54.007Z,6.85
2023-04-20T12:44:08.149Z,5.20
2023-04-20T12:48:21.804Z,4.53
2023-04-20T12:52:34.646Z,4.78
2023-04-20T12:56:48.187Z,6.05
2023-04-20T13:01:00.552Z,5.80
2023-04-20T13:05:12.973Z,6.32
2023-04-20T13:09:27.258Z,5.38
2023-04-20T13:13:39.680Z,6.70
2023-04-20T13:17:52.058Z,8.95
2023-04-20T13:22:05.154Z,9.23
2023-04-20T13:26:17.589Z,9.25
2023-04-20T13:30:30.019Z,6.43
2023-04-20T13:34:42.384Z,7.90
2023-04-20T13:38:56.081Z,4.88
2023-04-20T13:43:08.446Z,5.47
2023-04-20T13:47:21.048Z,4.40
2023-04-20T13:51:33.531Z,3.72
2023-04-20T13:55:45.823Z,6.15
2023-04-20T13:59:59.257Z,7.53
2023-04-20T14:04:11.698Z,8.80
2023-04-20T14:08:24.030Z,8.13
2023-04-20T14:12:36.324Z,6.00
2023-04-20T14:16:49.833Z,5.63
2023-04-20T14:21:02.208Z,7.85
2023-04-20T14:25:14.534Z,5.60
2023-04-20T14:29:26.934Z,12.05
2023-04-20T14:33:39.659Z,7.68
2023-04-20T14:37:52.244Z,6.65
2023-04-20T14:42:04.770Z,8.25
2023-04-20T14:46:17.271Z,8.02
2023-04-20T14:50:29.816Z,4.15
2023-04-20T14:54:42.203Z,8.27
2023-04-20T14:58:54.546Z,3.95
2023-04-20T15:03:07.177Z,10.10
2023-04-20T15:07:19.694Z,7.85
2023-04-20T15:11:32.130Z,6.22
2023-04-20T15:15:49.059Z,9.90
2023-04-20T15:20:04.538Z,7.25
2023-04-20T15:24:17.154Z,3.97
2023-04-20T15:28:29.734Z,7.68
2023-04-20T15:32:42.105Z,5.88
2023-04-20T15:36:54.498Z,4.88
2023-04-20T15:41:07.720Z,8.85
2023-04-20T15:45:20.365Z,8.68
2023-04-20T15:49:32.786Z,7.53
2023-04-20T15:53:49.657Z,14.50
2023-04-20T15:58:02.157Z,8.32
2023-04-20T16:02:14.746Z,9.20
2023-04-20T16:06:27.190Z,11.75
2023-04-20T16:10:39.687Z,9.82
2023-04-20T16:14:53.719Z,8.48
2023-04-20T16:19:06.282Z,7.57
2023-04-20T16:23:18.708Z,9.95
2023-04-20T16:27:31.057Z,6.35
2023-04-20T16:31:43.511Z,10.70
2023-04-20T16:35:56.258Z,8.13
2023-04-20T16:40:10.182Z,9.77
2023-04-20T16:44:22.667Z,7.40
2023-04-20T16:48:35.048Z,10.02
2023-04-20T16:52:48.292Z,13.23
2023-04-20T16:57:01.739Z,10.90
2023-04-20T17:01:15.015Z,9.02
2023-04-20T17:05:27.810Z,9.77
2023-04-20T17:09:40.658Z,10.68
2023-04-20T17:13:53.233Z,8.68
2023-04-20T17:18:07.118Z,12.60
2023-04-20T17:22:19.621Z,14.02
2023-04-20T17:26:31.988Z,14.02
2023-04-20T17:30:44.442Z,17.48
2023-04-20T17:34:57.587Z,10.73
2023-04-20T17:39:09.944Z,9.88
2023-04-20T17:43:22.343Z,17.02
2023-04-20T17:47:34.814Z,15.10
2023-04-20T17:51:47.174Z,18.95
2023-04-20T17:55:59.539Z,18.40
2023-04-20T18:00:12.366Z,16.77
2023-04-20T18:04:25.163Z,11.57
2023-04-20T18:08:38.032Z,19.42
2023-04-20T18:12:50.604Z,11.77
2023-04-20T18:17:03.749Z,15.65
2023-04-20T18:21:16.320Z,19.10
2023-04-20T18:25:28.845Z,15.80
2023-04-20T18:29:41.376Z,22.40
2023-04-20T18:33:54.064Z,13.98
2023-04-20T18:38:07.894Z,18.80
2023-04-20T18:42:20.352Z,18.85
2023-04-20T18:46:33.026Z,11.57
2023-04-20T18:50:46.023Z,19.35
2023-04-20T18:55:00.498Z,18.33
2023-04-20T18:59:12.986Z,25.27
2023-04-20T19:03:26.680Z,26.58
2023-04-20T19:07:39.205Z,21.60
2023-04-20T19:11:51.514Z,27.15
2023-04-20T19:16:04.978Z,22.33
2023-04-20T19:20:17.383Z,18.10
2023-04-20T19:24:30.834Z,20.58
2023-04-20T19:28:43.386Z,20.50
2023-04-20T19:32:55.867Z,24.73
2023-04-20T19:37:08.347Z,21.52
2023-04-20T19:41:20.887Z,20.38
2023-04-20T19:45:33.326Z,21.42
2023-04-20T19:49:46.020Z,23.65
2023-04-20T19:54:00.737Z,26.52
2023-04-20T19:58:13.691Z,24.65
2023-04-20T20:02:26.230Z,21.48
2023-04-20T20:06:38.848Z,23.48
2023-04-20T20:10:51.655Z,25.35
2023-04-20T20:15:05.102Z,20.38
2023-04-20T20:19:18.537Z,21.02
2023-04-20T20:23:31.127Z,25.20
2023-04-20T20:27:43.751Z,26.17
2023-04-20T20:31:56.418Z,30.38
2023-04-20T20:36:09.755Z,21.15
2023-04-20T20:40:22.413Z,18.60
2023-04-20T20:44:39.151Z,20.65
2023-04-20T20:48:51.620Z,18.65
2023-04-20T20:53:04.031Z,19.10
2023-04-20T20:57:16.522Z,18.55
2023-04-20T21:01:28.950Z,20.30
2023-04-20T21:05:41.452Z,16.98
2023-04-20T21:09:53.917Z,19.90
2023-04-20T21:14:06.207Z,16.80
2023-04-20T21:18:18.556Z,19.55
2023-04-20T21:22:30.972Z,14.50
2023-04-20T21:26:43.380Z,14.20
2023-04-20T21:30:55.729Z,16.13
2023-04-20T21:35:08.476Z,18.60
2023-04-20T21:39:21.112Z,22.38
2023-04-20T21:43:33.597Z,22.77
2023-04-20T21:47:45.978Z,12.10
2023-04-20T21:51:58.494Z,14.55
2023-04-20T21:56:11.481Z,8.90
2023-04-20T22:00:23.959Z,11.68
2023-04-20T22:04:36.615Z,9.80
2023-04-20T22:08:51.247Z,11.48
2023-04-20T22:13:04.838Z,11.23
2023-04-20T22:17:18.075Z,10.73
2023-04-20T22:21:30.907Z,14.48
2023-04-20T22:25:45.644Z,10.43
2023-04-20T22:29:58.123Z,12.02
2023-04-20T22:34:10.500Z,8.57
2023-04-20T22:38:22.862Z,13.13
2023-04-20T22:42:38.389Z,10.93
2023-04-20T22:46:51.539Z,10.32
2023-04-20T22:51:04.335Z,9.00
2023-04-20T22:55:16.888Z,6.75
2023-04-20T22:59:29.270Z,10.68
2023-04-20T23:03:41.753Z,7.57
2023-04-20T23:07:55.340Z,9.23
2023-04-20T23:12:11.802Z,9.07
2023-04-20T23:16:24.367Z,9.70
2023-04-20T23:20:40.034Z,6.88
2023-04-20T23:24:52.438Z,9.52
2023-04-20T23:29:04.890Z,8.32
2023-04-20T23:33:17.245Z,9.80
2023-04-20T23:37:29.678Z,7.57
2023-04-20T23:41:41.975Z,8.20
2023-04-20T23:45:54.416Z,7.35
2023-04-20T23:50:07.780Z,7.55
2023-04-20T23:54:20.019Z,6.38
2023-04-20T23:58:32.817Z,7.78
